YOSEMITE NATIONAL PARK, CA

2:37 PM PST on December 20, 2014 (GMT -0800)
RAWS WAWONA CA US | Change Station
CLOSE
Current Station
Personal Weather Station
Location: Tuolumne Meadows, CA
Elevation: 4309 ft
Nearby Weather Stations

Elev 4309 ft 37.53 °N, 119.64 °W | Updated 46 minutes ago

Overcast
Overcast
48 °F
Feels Like 48 °F
N
1
Wind Variable Wind from SW
Gusts 3.0 mph

Today
High -- | Low -- °F
--% Chance of Precip.
Yesterday
High -- | Low -- °F
Precip. -- in
7:09 AM 4:42 PM
Waning Crescent, 2% visible
Pressure 30.20 in
Visibility 1.5 miles
Clouds Mostly Cloudy 300 ft
Mostly Cloudy 900 ft
Overcast 1700 ft
Windchill 48 °F
Dew Point 47 °F
Humidity 95%
Rainfall 0.15 in
Snow Depth Not available.
UV 0 out of 12
Pollen 3.30 out of 12
Air Quality Not available.
Flu Activity Not available.
METAR KO22 202215Z AUTO 00000KT 1 1/2SM BKN003 BKN009 OVC017 10/10 A3020 RMK AO1 P0001

More Conditions Fewer Conditions

Pressure 30.20 in
Visibility 1.5 miles
Clouds Mostly Cloudy 300 ft
Mostly Cloudy 900 ft
Overcast 1700 ft
Windchill 48 °F
Dew Point 47 °F
Humidity 95%
Rainfall 0.15 in
Snow Depth Not available.
UV 0 out of 12
Pollen 3.30 out of 12
Air Quality Not available.
Flu Activity Not available.
METAR KO22 202215Z AUTO 00000KT 1 1/2SM BKN003 BKN009 OVC017 10/10 A3020 RMK AO1 P0001

More Conditions Fewer Conditions

10-Day Weather Forecast

Almanac

Astronomy

Dec. 20, 2014 Rise Set
Actual Time
Civil Twilight
Nautical Twilight
Astronomical Twilight
Moon
Length of Visible Light
Length of Day
Tomorrow will be .
, % of the Moon is Illuminated

Today's Extremes

State Highs State Lows

Community

WunderPhotos

Upload Photos

1,779,291 photos uploaded!

WunderBlogs® & News

Nearby

Air Quality

  Air Quality AQ Index Pollutant
Not available.

Snow Depth

Station Depth Elevation

Earthquake Activity

City Distance Mag. Time & Date
Minimum magnitude displayed is 2.5.

Coastal Water Temperatures

Place Temperature

Nearby Weather Stations